Time;durP1;ratioP1;P1;durP2;ratioP2;P2;SDS_P1;SDS_P2;PMS_P1;PMS_P2;Temp;Humidity;BMP_temperature;BMP_pressure;BME280_temperature;BME280_humidity;BME280_pressure;Samples;Min_cycle;Max_cycle;Signal;HPM_P1;HPM_P2
2021/09/24 00:03:54;;;;;;;17.40;10.80;;;17.80;97.70;;;;;;8283649;28;20494;-75
2021/09/24 00:07:55;;;;;;;15.23;11.10;;;17.80;97.80;;;;;;8300878;28;20612;-75
2021/09/24 00:11:55;;;;;;;17.63;10.93;;;17.80;97.90;;;;;;8282894;28;20190;-74
2021/09/24 00:15:56;;;;;;;14.30;9.70;;;17.80;98.00;;;;;;8300902;28;20268;-74
2021/09/24 00:19:57;;;;;;;14.57;10.60;;;17.70;98.10;;;;;;8300144;28;20220;-75
2021/09/24 00:23:57;;;;;;;15.47;11.20;;;17.70;98.20;;;;;;8300055;28;20195;-75
2021/09/24 00:27:59;;;;;;;17.80;11.67;;;17.70;98.30;;;;;;8300492;28;20176;-75
2021/09/24 00:32:00;;;;;;;14.93;10.00;;;17.70;98.40;;;;;;8299860;28;20626;-74
2021/09/24 00:36:00;;;;;;;17.87;12.37;;;17.60;98.50;;;;;;8298528;28;20423;-75
2021/09/24 00:40:01;;;;;;;18.67;11.50;;;17.60;98.60;;;;;;8283675;28;20207;-76
2021/09/24 00:44:03;;;;;;;13.77;10.67;;;17.60;98.70;;;;;;8299665;28;20175;-75
2021/09/24 00:48:04;;;;;;;19.20;10.30;;;17.60;98.80;;;;;;8300067;28;20242;-75
2021/09/24 00:52:05;;;;;;;16.40;11.83;;;17.50;98.80;;;;;;8299605;28;20487;-75
2021/09/24 00:56:08;;;;;;;17.83;12.07;;;17.50;98.90;;;;;;8298824;28;20435;-76
2021/09/24 01:00:09;;;;;;;16.10;11.97;;;17.40;99.00;;;;;;8299611;28;20462;-74
2021/09/24 01:04:10;;;;;;;21.03;13.40;;;17.40;99.10;;;;;;8311306;23;20509;-77
2021/09/24 01:08:11;;;;;;;16.37;12.50;;;17.40;99.20;;;;;;8299964;28;20533;-77
2021/09/24 01:12:11;;;;;;;25.77;13.10;;;17.40;99.30;;;;;;8299547;28;20178;-76
2021/09/24 01:16:15;;;;;;;17.63;11.30;;;17.40;99.40;;;;;;8300724;28;20524;-77
2021/09/24 01:20:20;;;;;;;18.60;11.20;;;17.40;99.40;;;;;;8285158;28;20217;-77
2021/09/24 01:24:21;;;;;;;15.83;11.30;;;17.50;99.40;;;;;;8307725;28;20411;-78
2021/09/24 01:28:23;;;;;;;15.23;12.80;;;17.50;99.40;;;;;;8306056;28;20505;-77
2021/09/24 01:32:24;;;;;;;26.70;12.63;;;17.50;99.40;;;;;;8306268;28;20428;-78
2021/09/24 01:36:25;;;;;;;12.70;10.30;;;17.50;99.40;;;;;;8302267;28;20752;-76
2021/09/24 01:40:25;;;;;;;13.93;11.00;;;17.50;99.30;;;;;;8305092;28;20455;-77
2021/09/24 01:44:26;;;;;;;16.13;12.27;;;17.50;99.30;;;;;;8308009;28;20180;-78
2021/09/24 01:48:26;;;;;;;15.30;12.43;;;17.50;99.40;;;;;;8304354;28;20555;-77
2021/09/24 01:52:28;;;;;;;21.00;12.40;;;17.50;99.40;;;;;;8286361;28;20282;-77
2021/09/24 01:56:29;;;;;;;17.07;10.40;;;17.50;99.40;;;;;;8304095;28;20167;-77
2021/09/24 02:00:30;;;;;;;19.60;11.80;;;17.50;99.40;;;;;;8302882;28;20472;-77
2021/09/24 02:04:30;;;;;;;16.80;11.70;;;17.60;99.30;;;;;;8303775;28;20768;-77
2021/09/24 02:08:31;;;;;;;16.73;10.77;;;17.60;99.20;;;;;;8303293;28;20255;-77
2021/09/24 02:12:31;;;;;;;14.90;11.47;;;17.70;99.20;;;;;;8303139;28;20187;-77
2021/09/24 02:16:33;;;;;;;14.37;11.60;;;17.60;99.10;;;;;;8304933;28;20180;-77
2021/09/24 02:20:33;;;;;;;12.57;11.23;;;17.60;99.10;;;;;;8286995;28;20521;-77
2021/09/24 02:24:34;;;;;;;19.03;11.00;;;17.60;99.10;;;;;;8303008;28;20514;-77
2021/09/24 02:28:35;;;;;;;21.07;10.20;;;17.60;99.10;;;;;;8285835;28;20193;-77
2021/09/24 02:32:35;;;;;;;19.90;11.33;;;17.50;99.10;;;;;;8301986;28;20234;-77
2021/09/24 02:36:37;;;;;;;16.77;11.77;;;17.40;99.20;;;;;;8302681;28;20452;-77
2021/09/24 02:40:38;;;;;;;15.30;11.67;;;17.40;99.30;;;;;;8302161;28;20216;-77
2021/09/24 02:44:38;;;;;;;15.70;11.77;;;17.30;99.40;;;;;;8302847;28;20905;-77
2021/09/24 02:48:39;;;;;;;12.73;10.53;;;17.20;99.50;;;;;;8286827;28;20190;-77
2021/09/24 02:52:40;;;;;;;13.70;9.97;;;17.10;99.50;;;;;;8303215;28;20199;-77
2021/09/24 02:56:40;;;;;;;16.30;10.73;;;17.10;99.60;;;;;;8302940;28;20178;-77
2021/09/24 03:00:42;;;;;;;14.33;10.30;;;17.10;99.70;;;;;;8303444;28;20651;-77
2021/09/24 03:04:42;;;;;;;13.00;10.10;;;17.00;99.80;;;;;;8285162;28;20313;-77
2021/09/24 03:08:43;;;;;;;17.87;11.77;;;17.00;99.80;;;;;;8283799;28;20427;-77
2021/09/24 03:12:44;;;;;;;12.97;10.80;;;17.00;99.80;;;;;;8302751;28;20220;-77
2021/09/24 03:16:45;;;;;;;11.73;9.73;;;16.90;99.90;;;;;;8301557;28;20535;-78
2021/09/24 03:20:45;;;;;;;12.17;9.43;;;16.90;99.90;;;;;;8300214;28;20497;-77
2021/09/24 03:24:46;;;;;;;13.57;9.63;;;16.90;99.90;;;;;;8299950;28;20492;-77
2021/09/24 03:28:47;;;;;;;15.30;10.37;;;16.90;99.90;;;;;;8300739;28;20225;-77
2021/09/24 03:32:47;;;;;;;14.30;10.57;;;16.90;99.90;;;;;;8283288;28;20177;-77
2021/09/24 03:36:48;;;;;;;17.17;12.80;;;16.80;99.90;;;;;;8284028;28;20917;-76
2021/09/24 03:40:48;;;;;;;15.03;11.70;;;16.80;99.90;;;;;;8301074;28;20243;-76
2021/09/24 03:44:49;;;;;;;15.50;13.13;;;16.70;99.90;;;;;;8283954;28;20188;-76
2021/09/24 03:48:50;;;;;;;19.20;13.70;;;16.70;99.90;;;;;;8283819;28;20502;-76
2021/09/24 03:52:52;;;;;;;17.90;13.43;;;16.60;99.90;;;;;;8300367;28;20520;-76
2021/09/24 03:56:52;;;;;;;17.30;13.30;;;16.50;99.90;;;;;;8300581;28;20219;-77
2021/09/24 04:00:54;;;;;;;12.53;11.23;;;16.40;99.90;;;;;;8300125;28;20936;-77
2021/09/24 04:04:55;;;;;;;16.87;12.00;;;16.30;99.90;;;;;;8300746;28;20218;-77
2021/09/24 04:08:55;;;;;;;20.90;14.57;;;16.20;99.90;;;;;;8285205;28;20431;-76
2021/09/24 04:12:56;;;;;;;20.40;11.83;;;16.10;99.90;;;;;;8282140;28;20173;-77
2021/09/24 04:16:57;;;;;;;17.00;11.50;;;16.10;99.90;;;;;;8299718;28;20172;-77
2021/09/24 04:20:57;;;;;;;19.07;10.83;;;16.10;99.90;;;;;;8299531;28;20212;-76
2021/09/24 04:24:58;;;;;;;18.07;13.07;;;16.00;99.90;;;;;;8299087;28;20561;-76
2021/09/24 04:29:00;;;;;;;16.63;11.37;;;15.90;99.90;;;;;;8282367;28;20204;-76
2021/09/24 04:33:01;;;;;;;15.80;11.37;;;15.80;99.90;;;;;;8281886;28;20628;-76
2021/09/24 04:37:02;;;;;;;13.67;10.80;;;15.80;99.90;;;;;;8281835;28;20551;-76
2021/09/24 04:41:02;;;;;;;22.63;12.33;;;15.70;99.90;;;;;;8299860;28;20204;-77
2021/09/24 04:45:04;;;;;;;15.43;11.07;;;15.60;99.90;;;;;;8297361;28;20297;-77
2021/09/24 04:49:07;;;;;;;16.63;13.80;;;15.60;99.90;;;;;;8313750;28;20226;-76
2021/09/24 04:53:08;;;;;;;29.93;14.80;;;15.50;99.90;;;;;;8298764;28;20974;-77
2021/09/24 04:57:08;;;;;;;22.97;12.07;;;15.50;99.90;;;;;;8313345;28;20431;-76
2021/09/24 05:01:10;;;;;;;16.20;12.47;;;15.50;99.90;;;;;;8297502;28;20219;-77
2021/09/24 05:05:11;;;;;;;15.03;10.30;;;15.50;99.90;;;;;;8298682;28;20286;-77
2021/09/24 05:09:12;;;;;;;14.00;11.90;;;15.50;99.90;;;;;;8298293;28;20516;-78
2021/09/24 05:13:12;;;;;;;15.17;11.40;;;15.50;99.90;;;;;;8298320;28;20935;-77
2021/09/24 05:17:13;;;;;;;16.33;12.27;;;15.50;99.90;;;;;;8301057;28;20184;-77
2021/09/24 05:21:14;;;;;;;22.27;10.80;;;15.60;99.90;;;;;;8300757;28;20227;-77
2021/09/24 05:25:14;;;;;;;13.27;11.13;;;15.60;99.90;;;;;;8299544;28;20169;-77
2021/09/24 05:29:15;;;;;;;20.60;12.90;;;15.70;99.90;;;;;;8299750;28;20180;-76
2021/09/24 05:33:16;;;;;;;22.00;11.90;;;15.70;99.90;;;;;;8298966;28;20204;-79
2021/09/24 05:37:16;;;;;;;15.33;10.30;;;15.70;99.90;;;;;;8301690;28;20177;-77
2021/09/24 05:41:17;;;;;;;17.70;10.00;;;15.80;99.90;;;;;;8301139;28;20216;-78
2021/09/24 05:45:20;;;;;;;12.20;9.00;;;15.80;99.90;;;;;;8311350;28;20189;-77
2021/09/24 05:49:20;;;;;;;13.60;10.53;;;15.80;99.90;;;;;;8326234;28;20424;-76
2021/09/24 05:53:21;;;;;;;12.73;10.20;;;15.90;99.90;;;;;;8325749;28;20444;-77
2021/09/24 05:57:22;;;;;;;13.23;9.30;;;15.90;99.90;;;;;;8304163;28;20184;-77
2021/09/24 06:01:23;;;;;;;11.03;8.80;;;16.00;99.90;;;;;;8317683;28;20209;-77
2021/09/24 06:05:24;;;;;;;13.97;8.57;;;16.00;99.90;;;;;;8318750;28;20494;-77
2021/09/24 06:09:24;;;;;;;13.13;8.67;;;16.00;99.90;;;;;;8306848;28;20442;-77
2021/09/24 06:13:25;;;;;;;11.80;9.47;;;16.10;99.90;;;;;;8304879;28;20240;-78
2021/09/24 06:17:33;;;;;;;13.80;8.67;;;16.10;99.90;;;;;;8300831;28;20639;-78
2021/09/24 06:21:34;;;;;;;10.53;8.40;;;16.20;99.90;;;;;;8301493;28;20230;-78
2021/09/24 06:25:35;;;;;;;15.43;10.53;;;16.20;99.90;;;;;;8301017;28;20488;-78
2021/09/24 06:29:35;;;;;;;16.20;10.90;;;16.20;99.90;;;;;;8301204;28;20432;-77
2021/09/24 06:33:36;;;;;;;12.43;9.20;;;16.30;99.90;;;;;;8300898;28;20232;-77
2021/09/24 06:37:37;;;;;;;14.20;9.50;;;16.30;99.90;;;;;;8297694;28;20200;-77
2021/09/24 06:41:38;;;;;;;11.43;9.53;;;16.30;99.90;;;;;;8292564;28;20315;-77
2021/09/24 06:45:39;;;;;;;9.77;8.10;;;16.40;99.90;;;;;;8302592;28;20200;-77
2021/09/24 06:49:40;;;;;;;13.73;10.33;;;16.50;99.90;;;;;;8312166;28;20449;-77
2021/09/24 06:53:40;;;;;;;12.87;8.70;;;16.70;99.90;;;;;;8301366;28;20194;-77
2021/09/24 06:57:41;;;;;;;11.60;7.27;;;16.90;99.90;;;;;;8298504;28;20193;-78
2021/09/24 07:01:44;;;;;;;12.07;6.80;;;17.10;99.90;;;;;;8300090;28;20586;-77
2021/09/24 07:05:44;;;;;;;12.20;7.57;;;17.30;99.90;;;;;;8300540;28;20187;-77
2021/09/24 07:09:45;;;;;;;9.37;7.00;;;17.50;99.70;;;;;;8300029;28;21017;-77
2021/09/24 07:13:46;;;;;;;15.13;7.13;;;17.70;99.30;;;;;;8291387;28;20179;-77
2021/09/24 07:17:46;;;;;;;7.30;6.07;;;18.00;99.00;;;;;;8301645;28;20180;-78
2021/09/24 07:21:47;;;;;;;6.93;6.23;;;18.30;98.60;;;;;;8305457;28;20238;-77
2021/09/24 07:25:48;;;;;;;7.23;6.50;;;18.50;98.20;;;;;;8300702;28;20234;-77
2021/09/24 07:29:49;;;;;;;8.27;6.27;;;18.70;97.70;;;;;;8307234;28;20593;-78
2021/09/24 07:33:51;;;;;;;6.00;5.40;;;19.00;97.40;;;;;;8310516;28;20416;-77
2021/09/24 07:37:51;;;;;;;9.70;6.00;;;19.30;96.90;;;;;;8317604;28;20444;-78
2021/09/24 07:41:52;;;;;;;10.50;6.00;;;19.70;96.70;;;;;;8308367;28;20463;-77
2021/09/24 07:45:55;;;;;;;6.77;4.80;;;19.90;96.30;;;;;;8306401;28;20181;-77
2021/09/24 07:49:56;;;;;;;5.53;4.97;;;20.20;96.00;;;;;;8304034;28;20181;-78
2021/09/24 07:53:57;;;;;;;6.40;5.73;;;20.40;95.40;;;;;;8330034;28;20453;-78
2021/09/24 07:57:57;;;;;;;10.00;4.97;;;20.60;95.10;;;;;;8316606;28;20212;-76
2021/09/24 08:01:58;;;;;;;6.23;5.63;;;20.80;94.90;;;;;;8312115;28;20213;-77
2021/09/24 08:05:59;;;;;;;7.63;5.53;;;20.90;94.60;;;;;;8329705;28;20276;-77
2021/09/24 08:09:59;;;;;;;6.63;5.87;;;21.10;94.60;;;;;;8290127;28;20180;-78
2021/09/24 08:14:00;;;;;;;6.50;5.20;;;21.40;94.20;;;;;;8304382;28;20486;-77
2021/09/24 08:18:01;;;;;;;6.57;4.50;;;21.50;94.10;;;;;;8319044;28;20184;-77
2021/09/24 08:22:02;;;;;;;6.60;4.50;;;21.60;94.00;;;;;;8302673;28;20207;-77
2021/09/24 08:26:04;;;;;;;4.83;3.83;;;21.80;93.60;;;;;;8308103;28;20188;-78
2021/09/24 08:30:07;;;;;;;5.80;4.30;;;21.90;93.70;;;;;;8307715;28;20428;-79
2021/09/24 08:34:08;;;;;;;5.33;4.03;;;22.20;93.00;;;;;;8336259;28;20442;-78
2021/09/24 08:38:09;;;;;;;4.20;3.90;;;22.30;92.70;;;;;;8309370;28;20397;-77
2021/09/24 08:42:10;;;;;;;5.33;4.30;;;22.50;92.50;;;;;;8296037;28;20196;-78
2021/09/24 08:46:11;;;;;;;4.60;3.67;;;22.70;92.10;;;;;;8302298;28;20446;-77
2021/09/24 08:50:12;;;;;;;4.00;3.60;;;22.70;92.00;;;;;;8299559;28;20425;-77
2021/09/24 08:54:13;;;;;;;4.60;3.77;;;22.90;92.00;;;;;;8302859;28;20176;-77
2021/09/24 08:58:15;;;;;;;6.40;3.00;;;23.30;91.80;;;;;;8306077;28;20624;-78
2021/09/24 09:02:15;;;;;;;8.63;3.00;;;23.60;90.50;;;;;;8296937;28;20239;-77
2021/09/24 09:06:18;;;;;;;3.47;3.17;;;23.90;89.90;;;;;;8302103;28;20414;-78
2021/09/24 09:10:18;;;;;;;2.93;2.60;;;24.00;88.70;;;;;;8313279;28;20177;-78
2021/09/24 09:14:23;;;;;;;2.77;2.50;;;23.80;88.40;;;;;;8301299;28;20860;-77
2021/09/24 09:18:24;;;;;;;3.20;3.00;;;23.40;88.80;;;;;;8307138;28;20443;-78
2021/09/24 09:22:25;;;;;;;3.60;2.87;;;23.10;89.90;;;;;;8299071;28;20454;-77
2021/09/24 09:26:26;;;;;;;2.60;2.40;;;22.90;90.30;;;;;;8303372;28;20462;-78
2021/09/24 09:30:28;;;;;;;4.33;3.13;;;22.90;90.50;;;;;;8308159;28;20234;-78
2021/09/24 09:34:35;;;;;;;2.20;2.10;;;23.00;90.20;;;;;;8306795;28;20394;-77
2021/09/24 09:38:42;;;;;;;5.53;2.47;;;23.10;90.00;;;;;;8302235;28;20748;-77
2021/09/24 09:42:45;;;;;;;1.87;1.73;;;23.00;89.90;;;;;;8304178;28;20566;-76
2021/09/24 09:46:48;;;;;;;2.40;1.90;;;23.10;90.00;;;;;;8301878;28;20435;-76
2021/09/24 09:50:49;;;;;;;8.10;2.20;;;23.30;89.30;;;;;;8299098;28;20443;-76
2021/09/24 09:54:59;;;;;;;2.23;2.07;;;23.50;89.00;;;;;;8322525;28;20443;-76
2021/09/24 09:58:59;;;;;;;3.73;2.73;;;23.60;88.40;;;;;;8303804;28;20544;-76
2021/09/24 10:03:11;;;;;;;2.50;2.40;;;23.60;87.60;;;;;;8304222;28;20438;-75
2021/09/24 10:07:18;;;;;;;2.23;2.03;;;23.40;88.00;;;;;;8305882;28;20169;-77
2021/09/24 10:11:21;;;;;;;2.87;1.97;;;23.30;88.90;;;;;;8286847;28;20478;-75
2021/09/24 10:15:22;;;;;;;8.40;2.50;;;23.50;88.40;;;;;;8305310;28;20451;-75
2021/09/24 10:19:22;;;;;;;2.10;2.00;;;23.70;87.70;;;;;;8304323;28;20475;-76
2021/09/24 10:23:23;;;;;;;1.87;1.77;;;23.70;87.80;;;;;;8298714;28;20180;-77
2021/09/24 10:27:31;;;;;;;2.33;2.13;;;23.60;87.00;;;;;;8298088;28;20185;-76
2021/09/24 10:31:48;;;;;;;3.47;2.37;;;23.50;86.60;;;;;;8292865;28;20279;-76
2021/09/24 10:35:58;;;;;;;4.80;2.37;;;23.50;86.30;;;;;;8297564;28;20983;-77
2021/09/24 10:40:04;;;;;;;3.83;3.33;;;23.40;85.90;;;;;;8271221;28;20788;-76
2021/09/24 10:44:05;;;;;;;4.63;2.30;;;23.30;86.60;;;;;;8293275;28;20952;-77
2021/09/24 10:48:17;;;;;;;2.37;2.20;;;23.20;86.70;;;;;;8300890;28;20443;-77
2021/09/24 10:52:18;;;;;;;3.50;1.80;;;23.30;87.20;;;;;;8318320;28;20185;-77
2021/09/24 10:56:25;;;;;;;2.67;2.00;;;23.60;86.60;;;;;;8298573;28;20433;-77
2021/09/24 11:00:32;;;;;;;1.87;1.77;;;24.00;85.70;;;;;;8272063;28;20262;-77
2021/09/24 11:04:43;;;;;;;3.53;2.17;;;24.30;84.10;;;;;;8297399;28;20474;-77
2021/09/24 11:08:45;;;;;;;3.10;2.40;;;24.70;83.60;;;;;;8310188;28;20419;-76
2021/09/24 11:13:08;;;;;;;2.63;1.53;;;25.10;82.50;;;;;;8294783;28;20493;-76
2021/09/24 11:17:11;;;;;;;3.43;2.40;;;25.30;81.40;;;;;;8299861;28;20466;-76
2021/09/24 11:21:12;;;;;;;2.30;1.53;;;25.10;80.90;;;;;;8279564;28;20475;-76
2021/09/24 11:25:13;;;;;;;2.67;2.20;;;24.80;80.50;;;;;;8311816;28;20476;-78
2021/09/24 11:29:15;;;;;;;2.90;2.00;;;24.60;80.90;;;;;;8294346;28;20600;-79
2021/09/24 11:33:48;;;;;;;2.20;1.90;;;24.30;81.00;;;;;;8271577;28;20181;-76
2021/09/24 11:37:49;;;;;;;2.20;2.10;;;24.20;82.40;;;;;;8289926;28;20471;-77
2021/09/24 11:41:49;;;;;;;1.83;1.73;;;24.00;82.10;;;;;;8325195;28;20938;-77
2021/09/24 11:45:50;;;;;;;7.63;1.80;;;24.00;82.90;;;;;;8279900;28;20267;-77
2021/09/24 11:50:06;;;;;;;2.07;1.87;;;24.00;81.30;;;;;;8297669;28;20196;-77
2021/09/24 11:54:06;;;;;;;2.20;2.00;;;24.00;81.70;;;;;;8298039;28;20268;-76
2021/09/24 11:58:21;;;;;;;2.00;1.90;;;24.00;81.70;;;;;;8279140;28;20475;-76
2021/09/24 12:02:22;;;;;;;4.00;1.70;;;24.00;81.70;;;;;;8289828;28;20244;-77
2021/09/24 12:06:23;;;;;;;5.87;1.80;;;24.00;81.30;;;;;;8288597;28;20444;-77
2021/09/24 12:10:28;;;;;;;2.33;2.13;;;24.10;81.50;;;;;;8284889;28;20462;-77
2021/09/24 12:14:29;;;;;;;5.97;1.67;;;24.30;80.80;;;;;;8297850;28;20605;-77
2021/09/24 12:19:05;;;;;;;1.80;1.70;;;24.40;80.20;;;;;;8284419;28;20447;-80
2021/09/24 12:23:06;;;;;;;1.57;1.47;;;24.50;79.40;;;;;;8264567;28;20510;-76
2021/09/24 12:27:12;;;;;;;1.90;1.70;;;24.50;79.50;;;;;;8298528;28;20439;-76
2021/09/24 12:31:50;;;;;;;5.67;2.27;;;24.50;79.20;;;;;;8294572;28;20184;-77
2021/09/24 12:36:05;;;;;;;1.63;1.53;;;24.40;78.10;;;;;;8269003;28;20873;-77
2021/09/24 12:40:15;;;;;;;5.33;2.60;;;24.30;79.40;;;;;;8267875;28;20498;-76
2021/09/24 12:44:16;;;;;;;2.73;2.50;;;24.10;80.50;;;;;;8268708;28;20889;-76
2021/09/24 12:48:17;;;;;;;3.43;2.13;;;23.90;81.10;;;;;;8268691;28;20416;-76
2021/09/24 12:52:20;;;;;;;8.57;2.80;;;23.70;81.90;;;;;;8267553;28;20482;-76
2021/09/24 12:56:20;;;;;;;2.63;2.30;;;23.60;82.70;;;;;;8267868;28;20799;-76
2021/09/24 13:00:23;;;;;;;2.70;2.50;;;23.60;83.30;;;;;;8267402;28;20516;-76
2021/09/24 13:04:23;;;;;;;4.40;2.90;;;23.50;83.90;;;;;;8259238;28;20476;-76
2021/09/24 13:08:25;;;;;;;3.00;2.70;;;23.30;83.90;;;;;;8273108;28;20443;-77
2021/09/24 13:12:26;;;;;;;2.60;2.40;;;23.30;84.50;;;;;;8299616;28;20530;-77
2021/09/24 13:16:29;;;;;;;4.57;3.70;;;23.30;84.20;;;;;;8281378;28;20434;-77
2021/09/24 13:20:30;;;;;;;5.23;2.40;;;23.40;84.10;;;;;;8298648;28;20738;-77
2021/09/24 13:24:31;;;;;;;4.77;2.57;;;23.50;83.40;;;;;;8300997;28;20423;-77
2021/09/24 13:28:32;;;;;;;2.20;2.00;;;23.70;83.30;;;;;;8301346;28;20441;-77
2021/09/24 13:32:32;;;;;;;3.30;2.40;;;23.80;81.90;;;;;;8301135;28;20263;-76
2021/09/24 13:36:33;;;;;;;2.57;1.93;;;24.00;81.00;;;;;;8300243;28;20180;-77
2021/09/24 13:40:36;;;;;;;2.00;1.90;;;24.10;80.60;;;;;;8289941;28;20219;-77
2021/09/24 13:44:36;;;;;;;2.97;2.07;;;24.20;80.30;;;;;;8269024;28;20197;-78
2021/09/24 13:48:37;;;;;;;3.43;1.97;;;24.20;80.10;;;;;;8274773;28;20912;-78
2021/09/24 13:52:38;;;;;;;2.20;2.00;;;24.20;79.50;;;;;;8269213;28;20192;-76
2021/09/24 13:56:38;;;;;;;1.73;1.63;;;24.00;79.60;;;;;;8284671;28;20192;-76
2021/09/24 14:00:39;;;;;;;2.50;2.30;;;24.00;80.40;;;;;;8299800;28;20640;-77
2021/09/24 14:04:40;;;;;;;3.47;2.50;;;23.90;80.20;;;;;;8293868;28;20311;-80
2021/09/24 14:08:40;;;;;;;5.73;2.90;;;23.90;80.10;;;;;;8277042;28;20188;-76
2021/09/24 14:12:41;;;;;;;2.73;2.40;;;23.90;80.50;;;;;;8299485;28;20210;-75
2021/09/24 14:16:42;;;;;;;2.40;2.10;;;23.90;81.30;;;;;;8301167;28;20196;-77
2021/09/24 14:20:43;;;;;;;5.10;3.27;;;23.90;82.30;;;;;;8333301;28;20481;-78
2021/09/24 14:24:43;;;;;;;2.57;2.37;;;23.80;80.50;;;;;;8332807;28;20182;-77
2021/09/24 14:28:45;;;;;;;3.47;2.37;;;23.70;80.60;;;;;;8322758;28;20180;-76
2021/09/24 14:32:46;;;;;;;4.20;2.10;;;23.70;81.00;;;;;;8309520;28;20263;-77
2021/09/24 14:36:48;;;;;;;2.43;2.23;;;23.60;81.50;;;;;;8340082;28;20429;-77
2021/09/24 14:40:49;;;;;;;2.10;1.90;;;23.50;81.80;;;;;;8324686;28;20470;-76
2021/09/24 14:44:49;;;;;;;2.23;2.03;;;23.50;81.80;;;;;;8307478;28;20417;-76
2021/09/24 14:48:50;;;;;;;2.10;1.90;;;23.40;82.00;;;;;;8288653;28;20183;-76
2021/09/24 14:52:51;;;;;;;3.53;2.03;;;23.40;81.70;;;;;;8306099;28;20194;-75
2021/09/24 14:56:51;;;;;;;2.60;2.43;;;23.50;82.00;;;;;;8289456;28;20191;-77
2021/09/24 15:00:52;;;;;;;3.40;3.00;;;23.50;82.10;;;;;;8306619;28;20524;-78
2021/09/24 15:04:53;;;;;;;2.53;2.33;;;23.50;81.40;;;;;;8303473;28;20706;-77
2021/09/24 15:08:53;;;;;;;2.63;2.43;;;23.50;81.20;;;;;;8305423;28;20195;-77
2021/09/24 15:12:54;;;;;;;3.43;2.20;;;23.50;80.50;;;;;;8285579;28;20287;-77
2021/09/24 15:16:55;;;;;;;4.40;2.30;;;23.50;81.00;;;;;;8287452;28;20189;-77
2021/09/24 15:20:56;;;;;;;3.63;2.50;;;23.50;81.10;;;;;;8298903;28;20604;-77
2021/09/24 15:24:58;;;;;;;2.17;2.03;;;23.40;80.30;;;;;;8281386;28;20422;-77
2021/09/24 15:28:58;;;;;;;2.43;2.23;;;23.40;80.80;;;;;;8302315;28;20223;-77
2021/09/24 15:32:59;;;;;;;4.97;2.33;;;23.30;81.30;;;;;;8300936;28;20931;-77
2021/09/24 15:36:59;;;;;;;10.90;3.10;;;23.30;80.80;;;;;;8300164;28;20227;-77
2021/09/24 15:41:00;;;;;;;5.03;1.80;;;23.40;81.10;;;;;;8298288;28;20554;-77
2021/09/24 15:45:01;;;;;;;1.97;1.70;;;23.60;80.40;;;;;;8304375;28;20193;-77
2021/09/24 15:49:02;;;;;;;1.70;1.60;;;23.90;79.00;;;;;;8327376;28;20546;-78
2021/09/24 15:53:03;;;;;;;2.47;1.77;;;24.20;77.30;;;;;;8334658;28;20278;-77
2021/09/24 15:57:04;;;;;;;3.03;2.37;;;24.20;76.80;;;;;;8298727;28;20425;-77
2021/09/24 16:01:07;;;;;;;3.83;2.23;;;24.20;76.80;;;;;;8296756;28;20209;-77
2021/09/24 16:05:12;;;;;;;6.17;1.70;;;24.00;76.70;;;;;;8315496;28;20228;-77
2021/09/24 16:09:12;;;;;;;4.67;2.27;;;23.90;77.20;;;;;;8299289;28;20414;-77
2021/09/24 16:13:13;;;;;;;1.90;1.77;;;23.70;78.00;;;;;;8305941;28;20447;-77
2021/09/24 16:17:14;;;;;;;2.30;1.63;;;23.40;79.00;;;;;;8302163;28;20216;-78
2021/09/24 16:21:14;;;;;;;1.70;1.60;;;23.10;79.50;;;;;;8319600;28;20211;-77
2021/09/24 16:25:15;;;;;;;2.83;1.60;;;22.90;79.90;;;;;;8327979;28;20188;-79
2021/09/24 16:29:16;;;;;;;1.90;1.80;;;22.60;81.20;;;;;;8304508;28;20188;-77
2021/09/24 16:33:17;;;;;;;6.10;2.50;;;22.30;81.80;;;;;;8302631;28;20647;-76
2021/09/24 16:37:18;;;;;;;2.03;1.93;;;22.10;82.80;;;;;;8276780;28;20632;-76
2021/09/24 16:41:19;;;;;;;2.57;2.47;;;21.90;83.60;;;;;;8288968;28;20216;-77
2021/09/24 16:45:20;;;;;;;4.77;2.40;;;21.80;84.20;;;;;;8296060;28;20263;-77
2021/09/24 16:49:21;;;;;;;4.37;2.30;;;21.70;84.50;;;;;;8306495;28;21012;-77
2021/09/24 16:53:21;;;;;;;2.73;2.40;;;21.70;84.80;;;;;;8292617;28;20491;-77
2021/09/24 16:57:22;;;;;;;5.00;2.50;;;21.50;85.00;;;;;;8303433;28;20202;-76
2021/09/24 17:01:23;;;;;;;2.17;1.97;;;21.40;85.70;;;;;;8299730;28;20219;-77
2021/09/24 17:05:24;;;;;;;2.17;2.07;;;21.40;86.10;;;;;;8295462;28;20242;-76
2021/09/24 17:09:25;;;;;;;2.07;1.70;;;21.20;86.50;;;;;;8283821;28;20245;-77
2021/09/24 17:13:27;;;;;;;2.60;2.10;;;21.10;87.50;;;;;;8279522;28;20439;-77
2021/09/24 17:17:32;;;;;;;5.63;2.70;;;21.10;88.00;;;;;;8294274;28;20181;-77
2021/09/24 17:21:33;;;;;;;5.93;2.57;;;21.00;88.40;;;;;;8276780;28;20477;-77
2021/09/24 17:25:37;;;;;;;4.27;3.20;;;20.90;88.80;;;;;;8291589;28;20443;-78
2021/09/24 17:29:37;;;;;;;6.10;3.50;;;20.90;89.40;;;;;;8286171;28;20210;-77
2021/09/24 17:33:38;;;;;;;3.70;2.90;;;20.90;89.80;;;;;;8278443;28;20437;-77
2021/09/24 17:37:39;;;;;;;6.73;3.60;;;20.90;89.60;;;;;;8284044;28;20519;-76
2021/09/24 17:41:40;;;;;;;5.10;3.23;;;20.80;89.70;;;;;;8278049;28;20453;-74
2021/09/24 17:45:40;;;;;;;6.50;3.20;;;20.90;90.00;;;;;;8299837;28;20426;-76
2021/09/24 17:49:41;;;;;;;2.63;2.43;;;20.80;89.50;;;;;;8300249;28;20249;-75
2021/09/24 17:53:42;;;;;;;3.13;2.17;;;20.80;89.00;;;;;;8299860;28;20186;-76
2021/09/24 17:57:43;;;;;;;4.70;2.63;;;20.80;88.80;;;;;;8299715;28;20174;-76
2021/09/24 18:01:44;;;;;;;2.63;2.40;;;20.80;89.10;;;;;;8300884;28;20234;-75
2021/09/24 18:05:44;;;;;;;2.30;2.20;;;20.70;89.20;;;;;;8304474;28;20978;-75
2021/09/24 18:09:45;;;;;;;2.30;2.10;;;20.70;89.20;;;;;;8305399;28;20632;-75
2021/09/24 18:13:46;;;;;;;2.23;2.03;;;20.70;89.50;;;;;;8304926;28;20185;-75
2021/09/24 18:17:52;;;;;;;3.00;2.30;;;20.70;89.70;;;;;;8332421;28;20184;-75
2021/09/24 18:21:53;;;;;;;3.50;2.57;;;20.70;90.00;;;;;;8337597;28;20459;-76
2021/09/24 18:25:53;;;;;;;2.40;2.20;;;20.60;90.10;;;;;;8337529;28;20425;-76
2021/09/24 18:29:54;;;;;;;4.00;2.07;;;20.60;90.20;;;;;;8337420;28;20182;-75
2021/09/24 18:33:55;;;;;;;2.53;1.90;;;20.60;90.70;;;;;;8336994;28;20180;-75
2021/09/24 18:37:57;;;;;;;2.20;1.63;;;20.60;90.60;;;;;;8336500;28;20449;-76
2021/09/24 18:41:58;;;;;;;4.70;1.77;;;20.50;90.50;;;;;;8336847;28;20669;-76
2021/09/24 18:45:59;;;;;;;2.00;1.73;;;20.50;90.50;;;;;;8336965;28;20442;-76
2021/09/24 18:50:00;;;;;;;2.23;1.93;;;20.50;90.50;;;;;;8315818;28;20194;-76
2021/09/24 18:54:04;;;;;;;3.40;1.47;;;20.50;90.10;;;;;;8300023;28;20187;-75
2021/09/24 18:58:05;;;;;;;1.60;1.50;;;20.50;89.60;;;;;;8299635;28;20441;-75
2021/09/24 19:02:07;;;;;;;1.77;1.67;;;20.50;88.90;;;;;;8294846;28;20964;-75
2021/09/24 19:06:08;;;;;;;2.80;1.63;;;20.50;88.30;;;;;;8280522;28;20198;-76
2021/09/24 19:10:10;;;;;;;2.03;1.93;;;20.50;87.90;;;;;;8298746;28;20994;-76
2021/09/24 19:14:10;;;;;;;1.97;1.53;;;20.50;87.70;;;;;;8299916;28;20187;-76
2021/09/24 19:18:11;;;;;;;1.30;1.30;;;20.50;88.00;;;;;;8302344;28;20434;-76
2021/09/24 19:22:12;;;;;;;1.90;1.70;;;20.50;88.00;;;;;;8301770;28;20208;-75
2021/09/24 19:26:19;;;;;;;1.30;1.20;;;20.50;88.50;;;;;;8302451;28;20195;-76
2021/09/24 19:30:19;;;;;;;1.67;1.30;;;20.40;88.50;;;;;;8302991;28;20164;-77
2021/09/24 19:34:20;;;;;;;2.47;2.00;;;20.40;88.60;;;;;;8297519;28;20799;-77
2021/09/24 19:38:21;;;;;;;1.30;1.20;;;20.40;89.00;;;;;;8302137;28;20633;-77
2021/09/24 19:42:22;;;;;;;3.10;1.90;;;20.40;89.20;;;;;;8301627;28;20198;-77
2021/09/24 19:46:22;;;;;;;1.57;1.47;;;20.30;89.50;;;;;;8303033;28;20265;-76
2021/09/24 19:50:23;;;;;;;2.30;1.60;;;20.30;89.80;;;;;;8312203;28;20208;-77
2021/09/24 19:54:24;;;;;;;1.87;1.77;;;20.30;89.90;;;;;;8303267;28;20178;-77
2021/09/24 19:58:25;;;;;;;1.40;1.30;;;20.30;90.00;;;;;;8302799;28;20625;-75
2021/09/24 20:02:25;;;;;;;2.27;1.33;;;20.20;90.20;;;;;;8287547;28;20245;-76
2021/09/24 20:06:26;;;;;;;1.50;1.40;;;20.20;90.20;;;;;;8322215;28;20253;-77
2021/09/24 20:10:26;;;;;;;2.93;1.10;;;20.20;90.20;;;;;;8299416;28;20656;-77
2021/09/24 20:14:27;;;;;;;2.53;2.33;;;20.10;90.20;;;;;;8296397;28;20189;-76
2021/09/24 20:18:28;;;;;;;2.30;1.80;;;20.10;90.30;;;;;;8306372;28;20188;-77
2021/09/24 20:22:28;;;;;;;3.30;1.50;;;20.00;90.30;;;;;;8308795;28;20208;-76
2021/09/24 20:26:29;;;;;;;2.07;1.87;;;19.90;90.40;;;;;;8329630;28;20596;-76
2021/09/24 20:30:34;;;;;;;1.93;1.50;;;19.80;90.40;;;;;;8333130;28;20237;-77
2021/09/24 20:34:35;;;;;;;1.80;1.70;;;19.70;90.40;;;;;;8297480;28;20685;-76
2021/09/24 20:38:36;;;;;;;2.30;1.37;;;19.60;90.60;;;;;;8285173;28;20428;-76
2021/09/24 20:42:36;;;;;;;3.63;1.93;;;19.50;90.70;;;;;;8295753;28;20271;-76
2021/09/24 20:46:38;;;;;;;2.30;2.10;;;19.40;91.00;;;;;;8286961;28;20188;-76
2021/09/24 20:50:39;;;;;;;2.37;1.80;;;19.40;90.80;;;;;;8333707;28;20206;-76